createdAt,value
2022-11-28T00:01:58.799Z,21.34
2022-11-28T00:08:23.151Z,21.26
2022-11-28T00:14:47.623Z,21.18
2022-11-28T00:21:12.010Z,21.09
2022-11-28T00:27:36.241Z,21.01
2022-11-28T00:34:00.417Z,20.93
2022-11-28T00:40:24.731Z,20.85
2022-11-28T00:46:48.975Z,20.77
2022-11-28T00:53:13.380Z,20.70
2022-11-28T00:59:37.665Z,20.62
2022-11-28T01:06:01.968Z,20.55
2022-11-28T01:12:26.175Z,20.47
2022-11-28T01:18:50.155Z,20.40
2022-11-28T01:25:14.421Z,20.33
2022-11-28T01:31:38.662Z,20.26
2022-11-28T01:38:02.925Z,20.19
2022-11-28T01:44:36.096Z,20.13
2022-11-28T01:51:00.083Z,20.06
2022-11-28T01:57:24.434Z,19.99
2022-11-28T02:03:51.707Z,19.93
2022-11-28T02:10:15.957Z,19.87
2022-11-28T02:16:49.238Z,19.81
2022-11-28T02:23:22.219Z,19.75
2022-11-28T02:30:04.996Z,19.69
2022-11-28T02:36:35.242Z,19.63
2022-11-28T02:42:59.623Z,19.57
2022-11-28T02:49:39.205Z,19.52
2022-11-28T02:56:03.519Z,19.46
2022-11-28T03:02:30.757Z,19.42
2022-11-28T03:08:58.064Z,19.37
2022-11-28T03:15:25.340Z,19.32
2022-11-28T03:21:50.088Z,19.28
2022-11-28T03:28:16.959Z,19.23
2022-11-28T03:34:41.606Z,19.18
2022-11-28T03:41:06.479Z,19.14
2022-11-28T03:47:33.686Z,19.09
2022-11-28T03:54:00.530Z,19.06
2022-11-28T04:00:27.559Z,19.01
2022-11-28T04:07:03.741Z,18.97
2022-11-28T04:13:37.544Z,18.93
2022-11-28T04:20:01.936Z,18.89
2022-11-28T04:26:26.500Z,18.85
2022-11-28T04:32:50.872Z,18.81
2022-11-28T04:39:15.212Z,18.77
2022-11-28T04:45:48.570Z,18.73
2022-11-28T04:52:19.112Z,18.69
2022-11-28T04:58:43.589Z,18.65
2022-11-28T05:05:03.593Z,18.60
2022-11-28T05:11:27.915Z,18.56
2022-11-28T05:17:52.307Z,18.52
2022-11-28T05:24:16.580Z,18.48
2022-11-28T05:30:40.925Z,18.44
2022-11-28T05:37:05.330Z,18.41
2022-11-28T05:43:29.756Z,18.41
2022-11-28T05:49:54.187Z,18.44
2022-11-28T05:56:18.527Z,18.53
2022-11-28T06:02:42.866Z,18.66
2022-11-28T06:09:07.296Z,18.82
2022-11-28T06:15:34.882Z,19.00
2022-11-28T06:22:04.644Z,19.16
2022-11-28T06:28:29.036Z,19.32
2022-11-28T06:34:53.338Z,19.50
2022-11-28T06:41:17.798Z,19.69
2022-11-28T06:47:42.166Z,19.87
2022-11-28T06:54:06.590Z,20.04
2022-11-28T07:00:30.850Z,20.20
2022-11-28T07:06:55.514Z,20.33
2022-11-28T07:13:19.956Z,20.47
2022-11-28T07:19:44.740Z,20.59
2022-11-28T07:26:10.181Z,20.72
2022-11-28T07:32:34.601Z,20.84
2022-11-28T07:38:59.048Z,20.96
2022-11-28T07:45:33.003Z,21.06
2022-11-28T07:52:07.920Z,21.16
2022-11-28T07:58:32.332Z,21.22
2022-11-28T08:04:56.806Z,21.30
2022-11-28T08:11:21.297Z,21.34
2022-11-28T08:17:45.619Z,21.40
2022-11-28T08:24:09.989Z,21.46
2022-11-28T08:30:34.457Z,21.54
2022-11-28T08:36:58.876Z,21.54
2022-11-28T08:43:23.286Z,21.52
2022-11-28T08:49:47.724Z,21.50
2022-11-28T08:56:12.168Z,21.49
2022-11-28T09:02:36.617Z,21.48
2022-11-28T09:09:01.065Z,21.52
2022-11-28T09:15:25.380Z,21.56
2022-11-28T09:21:54.571Z,21.61
2022-11-28T09:28:21.875Z,21.68
2022-11-28T09:34:46.232Z,21.76
2022-11-28T09:41:16.804Z,21.83
2022-11-28T09:47:41.194Z,21.89
2022-11-28T09:54:17.303Z,21.94
2022-11-28T10:00:41.683Z,22.00
2022-11-28T10:07:06.085Z,22.07
2022-11-28T10:14:07.326Z,22.08
2022-11-28T10:20:41.512Z,22.06
2022-11-28T10:27:06.118Z,22.04
2022-11-28T10:33:30.558Z,22.04
2022-11-28T10:39:54.955Z,22.05
2022-11-28T10:46:17.541Z,22.04
2022-11-28T10:52:47.893Z,22.07
2022-11-28T10:59:15.360Z,22.09
2022-11-28T11:05:39.683Z,22.11
2022-11-28T11:12:06.661Z,22.14
2022-11-28T11:18:33.935Z,22.19
2022-11-28T11:25:13.447Z,22.24
2022-11-28T11:31:42.906Z,22.30
2022-11-28T11:38:19.444Z,22.31
2022-11-28T11:44:55.638Z,22.33
2022-11-28T11:51:19.930Z,22.37
2022-11-28T11:57:44.269Z,22.41
2022-11-28T12:04:52.517Z,22.38
2022-11-28T12:11:17.022Z,22.34
2022-11-28T12:17:58.802Z,22.33
2022-11-28T12:24:32.342Z,22.36
2022-11-28T12:31:02.461Z,22.36
2022-11-28T12:37:33.079Z,22.36
2022-11-28T12:44:27.767Z,22.37
2022-11-28T12:51:06.129Z,22.41
2022-11-28T12:57:30.757Z,22.43
2022-11-28T13:04:04.061Z,22.44
2022-11-28T13:10:40.747Z,22.44
2022-11-28T13:17:11.221Z,22.48
2022-11-28T13:23:35.867Z,22.51
2022-11-28T13:29:58.505Z,22.53
2022-11-28T13:43:33.710Z,22.53
2022-11-28T13:50:02.257Z,22.53
2022-11-28T13:56:47.997Z,22.54
2022-11-28T14:03:27.443Z,22.54
2022-11-28T14:10:04.103Z,22.55
2022-11-28T14:16:46.907Z,22.56
2022-11-28T14:23:32.911Z,22.58
2022-11-28T14:30:03.109Z,22.60
2022-11-28T14:36:44.620Z,22.59
2022-11-28T14:43:09.037Z,22.58
2022-11-28T14:49:39.588Z,22.59
2022-11-28T14:56:06.797Z,22.62
2022-11-28T15:02:31.266Z,22.63
2022-11-28T15:08:58.953Z,22.64
2022-11-28T15:15:23.281Z,22.64
2022-11-28T15:21:53.433Z,22.67
2022-11-28T15:28:17.854Z,22.69
2022-11-28T15:34:42.466Z,22.71
2022-11-28T15:41:01.255Z,22.73
2022-11-28T15:47:25.635Z,22.78
2022-11-28T15:53:59.193Z,22.82
2022-11-28T16:00:23.495Z,22.81
2022-11-28T16:06:47.912Z,22.81
2022-11-28T16:13:12.253Z,22.81
2022-11-28T16:19:36.015Z,22.81
2022-11-28T16:26:02.894Z,22.80
2022-11-28T16:32:27.309Z,22.82
2022-11-28T16:38:54.222Z,22.85
2022-11-28T16:45:21.441Z,22.88
2022-11-28T16:51:53.977Z,22.89
2022-11-28T16:58:27.459Z,22.91
2022-11-28T17:05:03.683Z,22.92
2022-11-28T17:11:28.118Z,22.92
2022-11-28T17:17:52.495Z,22.93
2022-11-28T17:24:16.938Z,22.96
2022-11-28T17:30:41.424Z,23.00
2022-11-28T17:37:05.807Z,23.01
2022-11-28T17:43:32.391Z,23.04
2022-11-28T17:50:00.367Z,23.07
2022-11-28T17:56:25.210Z,23.09
2022-11-28T18:02:50.171Z,23.10
2022-11-28T18:09:14.662Z,23.09
2022-11-28T18:15:39.046Z,23.12
2022-11-28T18:22:03.479Z,23.12
2022-11-28T18:28:27.793Z,23.08
2022-11-28T18:34:52.224Z,23.04
2022-11-28T18:41:16.593Z,23.00
2022-11-28T18:47:40.925Z,22.99
2022-11-28T18:54:05.227Z,22.99
2022-11-28T19:00:29.652Z,22.99
2022-11-28T19:06:53.983Z,22.99
2022-11-28T19:13:18.366Z,23.00
2022-11-28T19:19:42.942Z,23.03
2022-11-28T19:26:07.754Z,23.07
2022-11-28T19:32:32.020Z,23.11
2022-11-28T19:38:56.419Z,23.13
2022-11-28T19:45:20.851Z,23.10
2022-11-28T19:51:45.230Z,23.05
2022-11-28T19:58:09.589Z,23.01
2022-11-28T20:04:33.955Z,22.99
2022-11-28T20:10:58.267Z,22.98
2022-11-28T20:17:22.618Z,23.00
2022-11-28T20:23:47.005Z,22.99
2022-11-28T20:30:11.313Z,22.99
2022-11-28T20:36:35.709Z,23.01
2022-11-28T20:43:00.281Z,23.05
2022-11-28T20:49:24.655Z,23.08
2022-11-28T20:55:49.069Z,23.11
2022-11-28T21:02:16.431Z,23.10
2022-11-28T21:08:40.973Z,23.09
2022-11-28T21:15:05.290Z,23.11
2022-11-28T21:21:29.556Z,23.13
2022-11-28T21:27:53.933Z,23.14
2022-11-28T21:34:18.352Z,23.14
2022-11-28T21:40:42.681Z,23.14
2022-11-28T21:47:07.359Z,23.09
2022-11-28T21:53:31.643Z,23.02
2022-11-28T21:59:55.965Z,22.94
2022-11-28T22:06:02.812Z,22.85
2022-11-28T22:12:27.616Z,22.75
2022-11-28T22:18:51.908Z,22.64
2022-11-28T22:25:16.336Z,22.54
2022-11-28T22:31:40.492Z,22.44
2022-11-28T22:38:04.843Z,22.33
2022-11-28T22:44:29.253Z,22.24
2022-11-28T22:50:53.672Z,22.14
2022-11-28T22:57:17.982Z,22.05
2022-11-28T23:03:42.272Z,21.96
2022-11-28T23:10:06.725Z,21.88
2022-11-28T23:16:31.030Z,21.79
2022-11-28T23:22:48.494Z,21.70
2022-11-28T23:29:12.903Z,21.60
2022-11-28T23:35:37.313Z,21.52
2022-11-28T23:42:01.708Z,21.44
2022-11-28T23:48:25.988Z,21.36
2022-11-28T23:54:50.412Z,21.28
